sensor_id;sensor_type;location;lat;lon;timestamp;P1;durP1;ratioP1;P2;durP2;ratioP2
57627;SDS011;43451;49.060;10.616;2022-11-04T00:01:14;15.30;;;10.32;;
57627;SDS011;43451;49.060;10.616;2022-11-04T00:03:40;14.20;;;9.40;;
57627;SDS011;43451;49.060;10.616;2022-11-04T00:06:05;13.95;;;8.70;;
57627;SDS011;43451;49.060;10.616;2022-11-04T00:08:32;12.02;;;8.50;;
57627;SDS011;43451;49.060;10.616;2022-11-04T00:10:58;10.82;;;5.63;;
57627;SDS011;43451;49.060;10.616;2022-11-04T00:13:42;6.20;;;3.60;;
57627;SDS011;43451;49.060;10.616;2022-11-04T00:16:08;5.22;;;2.90;;
57627;SDS011;43451;49.060;10.616;2022-11-04T00:18:53;4.35;;;2.85;;
57627;SDS011;43451;49.060;10.616;2022-11-04T00:21:18;3.75;;;2.63;;
57627;SDS011;43451;49.060;10.616;2022-11-04T00:24:03;4.53;;;2.60;;
57627;SDS011;43451;49.060;10.616;2022-11-04T00:26:48;4.30;;;2.50;;
57627;SDS011;43451;49.060;10.616;2022-11-04T00:29:32;3.47;;;2.40;;
57627;SDS011;43451;49.060;10.616;2022-11-04T00:31:57;3.28;;;2.35;;
57627;SDS011;43451;49.060;10.616;2022-11-04T00:34:41;5.40;;;2.53;;
57627;SDS011;43451;49.060;10.616;2022-11-04T00:37:07;5.28;;;2.67;;
57627;SDS011;43451;49.060;10.616;2022-11-04T00:39:33;4.18;;;2.72;;
57627;SDS011;43451;49.060;10.616;2022-11-04T00:41:58;4.93;;;2.40;;
57627;SDS011;43451;49.060;10.616;2022-11-04T00:44:23;4.30;;;2.55;;
57627;SDS011;43451;49.060;10.616;2022-11-04T00:46:49;4.18;;;2.63;;
57627;SDS011;43451;49.060;10.616;2022-11-04T00:49:14;2.47;;;2.17;;
57627;SDS011;43451;49.060;10.616;2022-11-04T00:51:40;3.97;;;2.53;;
57627;SDS011;43451;49.060;10.616;2022-11-04T00:54:05;3.40;;;2.30;;
57627;SDS011;43451;49.060;10.616;2022-11-04T00:56:31;5.13;;;2.22;;
57627;SDS011;43451;49.060;10.616;2022-11-04T00:58:59;3.50;;;2.05;;
57627;SDS011;43451;49.060;10.616;2022-11-04T01:01:25;4.53;;;2.20;;
57627;SDS011;43451;49.060;10.616;2022-11-04T01:03:51;3.55;;;2.20;;
57627;SDS011;43451;49.060;10.616;2022-11-04T01:06:18;3.38;;;2.20;;
57627;SDS011;43451;49.060;10.616;2022-11-04T01:08:45;2.72;;;1.98;;
57627;SDS011;43451;49.060;10.616;2022-11-04T01:11:11;2.60;;;1.80;;
57627;SDS011;43451;49.060;10.616;2022-11-04T01:13:38;3.60;;;2.00;;
57627;SDS011;43451;49.060;10.616;2022-11-04T01:16:08;3.22;;;2.10;;
57627;SDS011;43451;49.060;10.616;2022-11-04T01:18:35;4.32;;;2.33;;
57627;SDS011;43451;49.060;10.616;2022-11-04T01:21:01;4.82;;;2.30;;
57627;SDS011;43451;49.060;10.616;2022-11-04T01:23:29;3.20;;;2.15;;
57627;SDS011;43451;49.060;10.616;2022-11-04T01:25:55;3.25;;;1.98;;
57627;SDS011;43451;49.060;10.616;2022-11-04T01:28:20;2.25;;;1.73;;
57627;SDS011;43451;49.060;10.616;2022-11-04T01:30:46;2.70;;;2.03;;
57627;SDS011;43451;49.060;10.616;2022-11-04T01:33:11;5.78;;;2.22;;
57627;SDS011;43451;49.060;10.616;2022-11-04T01:35:37;3.55;;;1.80;;
57627;SDS011;43451;49.060;10.616;2022-11-04T01:38:02;2.00;;;1.70;;
57627;SDS011;43451;49.060;10.616;2022-11-04T01:40:28;2.20;;;1.67;;
57627;SDS011;43451;49.060;10.616;2022-11-04T01:42:54;2.38;;;1.75;;
57627;SDS011;43451;49.060;10.616;2022-11-04T01:45:20;2.72;;;2.10;;
57627;SDS011;43451;49.060;10.616;2022-11-04T01:47:49;3.33;;;1.70;;
57627;SDS011;43451;49.060;10.616;2022-11-04T01:50:24;3.42;;;1.80;;
57627;SDS011;43451;49.060;10.616;2022-11-04T01:52:55;2.47;;;1.70;;
57627;SDS011;43451;49.060;10.616;2022-11-04T01:55:34;3.53;;;1.83;;
57627;SDS011;43451;49.060;10.616;2022-11-04T01:58:07;2.42;;;1.85;;
57627;SDS011;43451;49.060;10.616;2022-11-04T02:00:39;4.90;;;2.30;;
57627;SDS011;43451;49.060;10.616;2022-11-04T02:03:07;2.97;;;1.98;;
57627;SDS011;43451;49.060;10.616;2022-11-04T02:05:36;4.65;;;2.65;;
57627;SDS011;43451;49.060;10.616;2022-11-04T02:08:03;3.47;;;2.30;;
57627;SDS011;43451;49.060;10.616;2022-11-04T02:12:57;3.42;;;2.30;;
57627;SDS011;43451;49.060;10.616;2022-11-04T02:15:39;4.07;;;2.30;;
57627;SDS011;43451;49.060;10.616;2022-11-04T02:21:10;3.10;;;2.00;;
57627;SDS011;43451;49.060;10.616;2022-11-04T02:32:05;3.22;;;2.15;;
57627;SDS011;43451;49.060;10.616;2022-11-04T02:42:56;2.88;;;1.95;;
57627;SDS011;43451;49.060;10.616;2022-11-04T02:48:14;3.97;;;2.13;;
57627;SDS011;43451;49.060;10.616;2022-11-04T02:50:55;3.00;;;2.10;;
57627;SDS011;43451;49.060;10.616;2022-11-04T02:53:38;3.08;;;2.22;;
57627;SDS011;43451;49.060;10.616;2022-11-04T02:56:09;4.28;;;2.33;;
57627;SDS011;43451;49.060;10.616;2022-11-04T02:58:39;3.95;;;2.38;;
57627;SDS011;43451;49.060;10.616;2022-11-04T03:01:07;3.80;;;2.33;;
57627;SDS011;43451;49.060;10.616;2022-11-04T03:03:38;3.45;;;2.30;;
57627;SDS011;43451;49.060;10.616;2022-11-04T03:06:09;2.97;;;2.28;;
57627;SDS011;43451;49.060;10.616;2022-11-04T03:08:40;5.32;;;1.98;;
57627;SDS011;43451;49.060;10.616;2022-11-04T03:11:24;3.47;;;2.10;;
57627;SDS011;43451;49.060;10.616;2022-11-04T03:13:53;3.85;;;1.80;;
57627;SDS011;43451;49.060;10.616;2022-11-04T03:16:37;2.90;;;1.88;;
57627;SDS011;43451;49.060;10.616;2022-11-04T03:19:15;3.78;;;1.80;;
57627;SDS011;43451;49.060;10.616;2022-11-04T03:21:53;2.88;;;1.48;;
57627;SDS011;43451;49.060;10.616;2022-11-04T03:24:23;3.50;;;1.65;;
57627;SDS011;43451;49.060;10.616;2022-11-04T03:32:31;3.40;;;1.40;;
57627;SDS011;43451;49.060;10.616;2022-11-04T03:35:05;3.00;;;1.45;;
57627;SDS011;43451;49.060;10.616;2022-11-04T03:37:32;2.30;;;1.50;;
57627;SDS011;43451;49.060;10.616;2022-11-04T03:39:58;2.30;;;1.50;;
57627;SDS011;43451;49.060;10.616;2022-11-04T03:42:23;2.17;;;1.25;;
57627;SDS011;43451;49.060;10.616;2022-11-04T03:44:51;1.80;;;1.48;;
57627;SDS011;43451;49.060;10.616;2022-11-04T03:47:19;3.35;;;1.30;;
57627;SDS011;43451;49.060;10.616;2022-11-04T03:49:48;2.45;;;1.33;;
57627;SDS011;43451;49.060;10.616;2022-11-04T03:52:16;2.17;;;1.25;;
57627;SDS011;43451;49.060;10.616;2022-11-04T03:54:43;1.92;;;1.20;;
57627;SDS011;43451;49.060;10.616;2022-11-04T04:00:14;1.58;;;0.88;;
57627;SDS011;43451;49.060;10.616;2022-11-04T04:05:29;2.38;;;1.00;;
57627;SDS011;43451;49.060;10.616;2022-11-04T04:10:55;2.08;;;1.20;;
57627;SDS011;43451;49.060;10.616;2022-11-04T04:19:02;1.50;;;1.00;;
57627;SDS011;43451;49.060;10.616;2022-11-04T04:21:34;2.70;;;1.40;;
57627;SDS011;43451;49.060;10.616;2022-11-04T04:24:05;3.10;;;1.20;;
57627;SDS011;43451;49.060;10.616;2022-11-04T04:26:53;1.42;;;0.93;;
57627;SDS011;43451;49.060;10.616;2022-11-04T04:29:39;2.60;;;1.15;;
57627;SDS011;43451;49.060;10.616;2022-11-04T04:32:08;1.40;;;1.08;;
57627;SDS011;43451;49.060;10.616;2022-11-04T04:34:34;1.92;;;1.05;;
57627;SDS011;43451;49.060;10.616;2022-11-04T04:37:02;1.50;;;1.00;;
57627;SDS011;43451;49.060;10.616;2022-11-04T04:39:37;2.95;;;1.10;;
57627;SDS011;43451;49.060;10.616;2022-11-04T04:42:24;1.92;;;0.93;;
57627;SDS011;43451;49.060;10.616;2022-11-04T04:45:18;2.42;;;1.10;;
57627;SDS011;43451;49.060;10.616;2022-11-04T04:47:56;3.28;;;1.00;;
57627;SDS011;43451;49.060;10.616;2022-11-04T04:50:22;2.83;;;1.25;;
57627;SDS011;43451;49.060;10.616;2022-11-04T04:52:52;1.42;;;0.93;;
57627;SDS011;43451;49.060;10.616;2022-11-04T04:55:19;3.20;;;1.02;;
57627;SDS011;43451;49.060;10.616;2022-11-04T04:57:44;1.48;;;0.90;;
57627;SDS011;43451;49.060;10.616;2022-11-04T05:00:14;3.20;;;1.10;;
57627;SDS011;43451;49.060;10.616;2022-11-04T05:02:41;4.28;;;1.20;;
57627;SDS011;43451;49.060;10.616;2022-11-04T05:05:07;1.23;;;0.90;;
57627;SDS011;43451;49.060;10.616;2022-11-04T05:07:33;4.13;;;1.00;;
57627;SDS011;43451;49.060;10.616;2022-11-04T05:09:59;1.67;;;1.00;;
57627;SDS011;43451;49.060;10.616;2022-11-04T05:12:24;4.90;;;1.20;;
57627;SDS011;43451;49.060;10.616;2022-11-04T05:14:50;1.65;;;0.98;;
57627;SDS011;43451;49.060;10.616;2022-11-04T05:17:15;1.38;;;0.90;;
57627;SDS011;43451;49.060;10.616;2022-11-04T05:19:41;2.88;;;1.20;;
57627;SDS011;43451;49.060;10.616;2022-11-04T05:22:07;3.47;;;1.05;;
57627;SDS011;43451;49.060;10.616;2022-11-04T05:24:32;2.20;;;1.02;;
57627;SDS011;43451;49.060;10.616;2022-11-04T05:26:58;4.22;;;1.30;;
57627;SDS011;43451;49.060;10.616;2022-11-04T05:29:23;1.50;;;1.00;;
57627;SDS011;43451;49.060;10.616;2022-11-04T05:31:49;2.50;;;1.13;;
57627;SDS011;43451;49.060;10.616;2022-11-04T05:34:14;2.30;;;1.00;;
57627;SDS011;43451;49.060;10.616;2022-11-04T05:36:40;2.97;;;1.50;;
57627;SDS011;43451;49.060;10.616;2022-11-04T05:39:05;1.63;;;1.00;;
57627;SDS011;43451;49.060;10.616;2022-11-04T05:41:32;3.00;;;1.20;;
57627;SDS011;43451;49.060;10.616;2022-11-04T05:44:01;2.55;;;1.10;;
57627;SDS011;43451;49.060;10.616;2022-11-04T05:46:29;2.35;;;1.20;;
57627;SDS011;43451;49.060;10.616;2022-11-04T05:48:55;2.47;;;1.10;;
57627;SDS011;43451;49.060;10.616;2022-11-04T05:51:21;3.30;;;1.15;;
57627;SDS011;43451;49.060;10.616;2022-11-04T05:53:48;3.67;;;1.08;;
57627;SDS011;43451;49.060;10.616;2022-11-04T05:56:14;2.67;;;1.30;;
57627;SDS011;43451;49.060;10.616;2022-11-04T05:58:40;3.25;;;1.17;;
57627;SDS011;43451;49.060;10.616;2022-11-04T06:03:58;4.40;;;1.10;;
57627;SDS011;43451;49.060;10.616;2022-11-04T06:06:25;3.78;;;1.13;;
57627;SDS011;43451;49.060;10.616;2022-11-04T06:08:53;3.05;;;1.20;;
57627;SDS011;43451;49.060;10.616;2022-11-04T06:11:20;2.85;;;1.30;;
57627;SDS011;43451;49.060;10.616;2022-11-04T06:13:46;3.60;;;1.10;;
57627;SDS011;43451;49.060;10.616;2022-11-04T06:16:12;4.50;;;1.58;;
57627;SDS011;43451;49.060;10.616;2022-11-04T06:18:38;3.33;;;1.40;;
57627;SDS011;43451;49.060;10.616;2022-11-04T06:23:33;3.28;;;1.38;;
57627;SDS011;43451;49.060;10.616;2022-11-04T06:25:59;3.17;;;1.15;;
57627;SDS011;43451;49.060;10.616;2022-11-04T06:28:24;6.25;;;1.40;;
57627;SDS011;43451;49.060;10.616;2022-11-04T06:30:50;3.35;;;1.30;;
57627;SDS011;43451;49.060;10.616;2022-11-04T06:33:15;3.25;;;1.23;;
57627;SDS011;43451;49.060;10.616;2022-11-04T06:35:41;4.25;;;1.13;;
57627;SDS011;43451;49.060;10.616;2022-11-04T06:38:06;3.08;;;1.40;;
57627;SDS011;43451;49.060;10.616;2022-11-04T06:40:31;2.42;;;1.20;;
57627;SDS011;43451;49.060;10.616;2022-11-04T06:42:57;4.05;;;1.70;;
57627;SDS011;43451;49.060;10.616;2022-11-04T06:45:23;2.92;;;1.30;;
57627;SDS011;43451;49.060;10.616;2022-11-04T06:47:48;5.75;;;1.80;;
57627;SDS011;43451;49.060;10.616;2022-11-04T06:50:13;4.05;;;1.65;;
57627;SDS011;43451;49.060;10.616;2022-11-04T06:52:39;2.00;;;1.38;;
57627;SDS011;43451;49.060;10.616;2022-11-04T06:55:05;3.42;;;1.40;;
57627;SDS011;43451;49.060;10.616;2022-11-04T06:57:31;4.00;;;1.20;;
57627;SDS011;43451;49.060;10.616;2022-11-04T06:59:56;4.07;;;1.20;;
57627;SDS011;43451;49.060;10.616;2022-11-04T07:02:22;4.28;;;1.40;;
57627;SDS011;43451;49.060;10.616;2022-11-04T07:04:47;1.90;;;1.10;;
57627;SDS011;43451;49.060;10.616;2022-11-04T07:07:12;3.42;;;1.23;;
57627;SDS011;43451;49.060;10.616;2022-11-04T07:09:38;1.80;;;1.00;;
57627;SDS011;43451;49.060;10.616;2022-11-04T07:12:03;3.72;;;1.20;;
57627;SDS011;43451;49.060;10.616;2022-11-04T07:14:29;4.72;;;1.10;;
57627;SDS011;43451;49.060;10.616;2022-11-04T07:16:55;3.50;;;1.10;;
57627;SDS011;43451;49.060;10.616;2022-11-04T07:19:20;2.45;;;1.20;;
57627;SDS011;43451;49.060;10.616;2022-11-04T07:21:46;4.07;;;1.35;;
57627;SDS011;43451;49.060;10.616;2022-11-04T07:24:11;4.95;;;1.55;;
57627;SDS011;43451;49.060;10.616;2022-11-04T07:26:37;6.03;;;1.40;;
57627;SDS011;43451;49.060;10.616;2022-11-04T07:29:02;2.08;;;1.00;;
57627;SDS011;43451;49.060;10.616;2022-11-04T07:31:30;2.80;;;1.20;;
57627;SDS011;43451;49.060;10.616;2022-11-04T07:33:56;6.30;;;1.25;;
57627;SDS011;43451;49.060;10.616;2022-11-04T07:36:21;3.28;;;1.00;;
57627;SDS011;43451;49.060;10.616;2022-11-04T07:38:47;4.53;;;1.10;;
57627;SDS011;43451;49.060;10.616;2022-11-04T07:41:12;2.50;;;1.00;;
57627;SDS011;43451;49.060;10.616;2022-11-04T07:43:38;4.93;;;1.13;;
57627;SDS011;43451;49.060;10.616;2022-11-04T07:46:05;4.43;;;1.30;;
57627;SDS011;43451;49.060;10.616;2022-11-04T07:48:36;5.88;;;1.35;;
57627;SDS011;43451;49.060;10.616;2022-11-04T07:51:03;3.17;;;1.10;;
57627;SDS011;43451;49.060;10.616;2022-11-04T07:53:30;2.15;;;1.27;;
57627;SDS011;43451;49.060;10.616;2022-11-04T07:55:56;4.72;;;1.30;;
57627;SDS011;43451;49.060;10.616;2022-11-04T07:58:22;2.97;;;1.20;;
57627;SDS011;43451;49.060;10.616;2022-11-04T08:00:49;6.00;;;1.30;;
57627;SDS011;43451;49.060;10.616;2022-11-04T08:03:15;2.33;;;1.23;;
57627;SDS011;43451;49.060;10.616;2022-11-04T08:05:41;1.38;;;0.93;;
57627;SDS011;43451;49.060;10.616;2022-11-04T08:08:06;8.10;;;1.55;;
57627;SDS011;43451;49.060;10.616;2022-11-04T08:10:32;3.33;;;1.17;;
57627;SDS011;43451;49.060;10.616;2022-11-04T08:12:58;4.28;;;1.52;;
57627;SDS011;43451;49.060;10.616;2022-11-04T08:15:24;4.18;;;1.25;;
57627;SDS011;43451;49.060;10.616;2022-11-04T08:17:49;6.00;;;1.60;;
57627;SDS011;43451;49.060;10.616;2022-11-04T08:20:15;4.53;;;1.35;;
57627;SDS011;43451;49.060;10.616;2022-11-04T08:22:40;5.28;;;1.50;;
57627;SDS011;43451;49.060;10.616;2022-11-04T08:25:06;5.20;;;1.90;;
57627;SDS011;43451;49.060;10.616;2022-11-04T08:27:31;4.00;;;1.70;;
57627;SDS011;43451;49.060;10.616;2022-11-04T08:29:58;5.35;;;2.15;;
57627;SDS011;43451;49.060;10.616;2022-11-04T08:32:23;5.03;;;1.75;;
57627;SDS011;43451;49.060;10.616;2022-11-04T08:34:49;3.20;;;1.50;;
57627;SDS011;43451;49.060;10.616;2022-11-04T08:37:15;7.95;;;1.83;;
57627;SDS011;43451;49.060;10.616;2022-11-04T08:39:41;3.42;;;1.48;;
57627;SDS011;43451;49.060;10.616;2022-11-04T08:42:07;4.50;;;1.30;;
57627;SDS011;43451;49.060;10.616;2022-11-04T08:44:33;4.25;;;1.63;;
57627;SDS011;43451;49.060;10.616;2022-11-04T08:46:58;4.88;;;1.73;;
57627;SDS011;43451;49.060;10.616;2022-11-04T08:49:24;3.83;;;1.83;;
57627;SDS011;43451;49.060;10.616;2022-11-04T08:51:50;2.83;;;1.67;;
57627;SDS011;43451;49.060;10.616;2022-11-04T08:54:23;3.85;;;1.60;;
57627;SDS011;43451;49.060;10.616;2022-11-04T08:56:49;6.90;;;1.38;;
57627;SDS011;43451;49.060;10.616;2022-11-04T08:59:15;6.15;;;1.35;;
57627;SDS011;43451;49.060;10.616;2022-11-04T09:01:41;3.72;;;1.20;;
57627;SDS011;43451;49.060;10.616;2022-11-04T09:04:08;3.90;;;1.10;;
57627;SDS011;43451;49.060;10.616;2022-11-04T09:06:36;2.38;;;1.42;;
57627;SDS011;43451;49.060;10.616;2022-11-04T09:09:04;3.13;;;1.13;;
57627;SDS011;43451;49.060;10.616;2022-11-04T09:11:32;4.15;;;1.20;;
57627;SDS011;43451;49.060;10.616;2022-11-04T09:14:01;4.47;;;1.42;;
57627;SDS011;43451;49.060;10.616;2022-11-04T09:16:28;6.65;;;1.30;;
57627;SDS011;43451;49.060;10.616;2022-11-04T09:18:55;4.03;;;1.30;;
57627;SDS011;43451;49.060;10.616;2022-11-04T09:21:21;4.53;;;1.50;;
57627;SDS011;43451;49.060;10.616;2022-11-04T09:23:47;3.50;;;1.30;;
57627;SDS011;43451;49.060;10.616;2022-11-04T09:26:13;3.80;;;1.50;;
57627;SDS011;43451;49.060;10.616;2022-11-04T09:28:39;2.60;;;1.40;;
57627;SDS011;43451;49.060;10.616;2022-11-04T09:31:06;5.18;;;1.80;;
57627;SDS011;43451;49.060;10.616;2022-11-04T09:33:33;8.07;;;1.50;;
57627;SDS011;43451;49.060;10.616;2022-11-04T09:35:59;4.47;;;1.50;;
57627;SDS011;43451;49.060;10.616;2022-11-04T09:38:27;6.78;;;1.83;;
57627;SDS011;43451;49.060;10.616;2022-11-04T09:40:53;4.90;;;2.33;;
57627;SDS011;43451;49.060;10.616;2022-11-04T09:46:00;4.90;;;1.75;;
57627;SDS011;43451;49.060;10.616;2022-11-04T09:48:31;4.03;;;1.45;;
57627;SDS011;43451;49.060;10.616;2022-11-04T09:51:03;4.97;;;1.80;;
57627;SDS011;43451;49.060;10.616;2022-11-04T09:53:41;4.65;;;1.80;;
57627;SDS011;43451;49.060;10.616;2022-11-04T09:58:46;3.08;;;1.30;;
57627;SDS011;43451;49.060;10.616;2022-11-04T10:01:15;2.28;;;1.10;;
57627;SDS011;43451;49.060;10.616;2022-11-04T10:06:40;5.35;;;1.10;;
57627;SDS011;43451;49.060;10.616;2022-11-04T10:15:15;2.13;;;1.10;;
57627;SDS011;43451;49.060;10.616;2022-11-04T10:28:43;3.08;;;1.30;;
57627;SDS011;43451;49.060;10.616;2022-11-04T10:31:14;3.67;;;1.35;;
57627;SDS011;43451;49.060;10.616;2022-11-04T10:33:53;6.18;;;1.88;;
57627;SDS011;43451;49.060;10.616;2022-11-04T10:36:24;3.17;;;1.52;;
57627;SDS011;43451;49.060;10.616;2022-11-04T10:38:54;4.70;;;1.45;;
57627;SDS011;43451;49.060;10.616;2022-11-04T10:41:33;5.78;;;1.67;;
57627;SDS011;43451;49.060;10.616;2022-11-04T10:52:08;4.20;;;2.00;;
57627;SDS011;43451;49.060;10.616;2022-11-04T10:54:45;3.22;;;1.35;;
57627;SDS011;43451;49.060;10.616;2022-11-04T10:57:15;2.80;;;1.10;;
57627;SDS011;43451;49.060;10.616;2022-11-04T10:59:50;4.15;;;1.30;;
57627;SDS011;43451;49.060;10.616;2022-11-04T11:07:48;2.15;;;1.30;;
57627;SDS011;43451;49.060;10.616;2022-11-04T11:10:26;3.45;;;1.30;;
57627;SDS011;43451;49.060;10.616;2022-11-04T11:13:00;2.53;;;1.20;;
57627;SDS011;43451;49.060;10.616;2022-11-04T11:20:45;2.75;;;1.23;;
57627;SDS011;43451;49.060;10.616;2022-11-04T11:26:18;6.45;;;1.40;;
57627;SDS011;43451;49.060;10.616;2022-11-04T11:28:55;3.13;;;1.13;;
57627;SDS011;43451;49.060;10.616;2022-11-04T11:31:26;3.00;;;1.10;;
57627;SDS011;43451;49.060;10.616;2022-11-04T11:34:02;3.80;;;1.23;;
57627;SDS011;43451;49.060;10.616;2022-11-04T11:36:30;2.97;;;1.00;;
57627;SDS011;43451;49.060;10.616;2022-11-04T11:38:59;2.40;;;1.23;;
57627;SDS011;43451;49.060;10.616;2022-11-04T11:41:30;2.05;;;1.17;;
57627;SDS011;43451;49.060;10.616;2022-11-04T11:44:19;3.60;;;1.20;;
57627;SDS011;43451;49.060;10.616;2022-11-04T11:46:51;2.58;;;1.40;;
57627;SDS011;43451;49.060;10.616;2022-11-04T11:49:23;2.03;;;1.00;;
57627;SDS011;43451;49.060;10.616;2022-11-04T11:52:29;4.55;;;2.03;;
57627;SDS011;43451;49.060;10.616;2022-11-04T12:00:44;3.38;;;1.17;;
57627;SDS011;43451;49.060;10.616;2022-11-04T12:05:46;3.45;;;1.25;;
57627;SDS011;43451;49.060;10.616;2022-11-04T12:11:39;3.03;;;1.20;;
57627;SDS011;43451;49.060;10.616;2022-11-04T12:16:55;2.97;;;1.30;;
57627;SDS011;43451;49.060;10.616;2022-11-04T12:19:42;3.65;;;1.60;;
57627;SDS011;43451;49.060;10.616;2022-11-04T12:22:23;2.78;;;1.10;;
57627;SDS011;43451;49.060;10.616;2022-11-04T12:30:45;5.85;;;1.50;;
57627;SDS011;43451;49.060;10.616;2022-11-04T12:33:25;2.40;;;1.25;;
57627;SDS011;43451;49.060;10.616;2022-11-04T12:50:05;4.13;;;1.30;;
57627;SDS011;43451;49.060;10.616;2022-11-04T13:00:51;2.58;;;0.90;;
57627;SDS011;43451;49.060;10.616;2022-11-04T13:03:28;4.38;;;1.20;;
57627;SDS011;43451;49.060;10.616;2022-11-04T13:06:18;3.33;;;1.05;;
57627;SDS011;43451;49.060;10.616;2022-11-04T13:08:58;3.60;;;1.13;;
57627;SDS011;43451;49.060;10.616;2022-11-04T13:14:05;3.95;;;0.90;;
57627;SDS011;43451;49.060;10.616;2022-11-04T13:16:40;2.10;;;0.90;;
57627;SDS011;43451;49.060;10.616;2022-11-04T13:21:54;4.05;;;1.30;;
57627;SDS011;43451;49.060;10.616;2022-11-04T13:24:27;4.43;;;1.08;;
57627;SDS011;43451;49.060;10.616;2022-11-04T13:26:57;2.42;;;1.02;;
57627;SDS011;43451;49.060;10.616;2022-11-04T13:29:27;4.53;;;1.30;;
57627;SDS011;43451;49.060;10.616;2022-11-04T13:32:11;3.30;;;1.50;;
57627;SDS011;43451;49.060;10.616;2022-11-04T13:34:56;4.35;;;1.20;;
57627;SDS011;43451;49.060;10.616;2022-11-04T13:37:29;4.70;;;1.33;;
57627;SDS011;43451;49.060;10.616;2022-11-04T13:45:04;4.45;;;1.25;;
57627;SDS011;43451;49.060;10.616;2022-11-04T13:47:37;3.03;;;1.30;;
57627;SDS011;43451;49.060;10.616;2022-11-04T13:50:35;4.75;;;1.20;;
57627;SDS011;43451;49.060;10.616;2022-11-04T13:53:03;5.65;;;1.20;;
57627;SDS011;43451;49.060;10.616;2022-11-04T13:55:31;5.07;;;1.58;;
57627;SDS011;43451;49.060;10.616;2022-11-04T13:58:00;4.32;;;1.30;;
57627;SDS011;43451;49.060;10.616;2022-11-04T14:00:29;4.43;;;1.25;;
57627;SDS011;43451;49.060;10.616;2022-11-04T14:02:56;4.13;;;1.27;;
57627;SDS011;43451;49.060;10.616;2022-11-04T14:16:01;10.82;;;1.73;;
57627;SDS011;43451;49.060;10.616;2022-11-04T14:18:30;4.70;;;1.40;;
57627;SDS011;43451;49.060;10.616;2022-11-04T14:23:32;6.13;;;1.48;;
57627;SDS011;43451;49.060;10.616;2022-11-04T14:26:05;8.85;;;1.83;;
57627;SDS011;43451;49.060;10.616;2022-11-04T14:28:36;4.30;;;1.40;;
57627;SDS011;43451;49.060;10.616;2022-11-04T14:31:08;3.90;;;1.27;;
57627;SDS011;43451;49.060;10.616;2022-11-04T14:33:39;3.80;;;1.30;;
57627;SDS011;43451;49.060;10.616;2022-11-04T14:38:54;7.15;;;1.38;;
57627;SDS011;43451;49.060;10.616;2022-11-04T14:43:52;6.82;;;1.42;;
57627;SDS011;43451;49.060;10.616;2022-11-04T14:46:20;3.35;;;1.67;;
57627;SDS011;43451;49.060;10.616;2022-11-04T14:48:49;2.38;;;1.15;;
57627;SDS011;43451;49.060;10.616;2022-11-04T14:53:58;4.22;;;1.13;;
57627;SDS011;43451;49.060;10.616;2022-11-04T14:56:29;3.90;;;1.30;;
57627;SDS011;43451;49.060;10.616;2022-11-04T14:58:56;4.55;;;1.45;;
57627;SDS011;43451;49.060;10.616;2022-11-04T15:01:22;3.72;;;1.30;;
57627;SDS011;43451;49.060;10.616;2022-11-04T15:03:49;7.25;;;1.65;;
57627;SDS011;43451;49.060;10.616;2022-11-04T15:06:24;3.30;;;1.20;;
57627;SDS011;43451;49.060;10.616;2022-11-04T15:08:52;3.80;;;1.30;;
57627;SDS011;43451;49.060;10.616;2022-11-04T15:11:25;5.38;;;1.30;;
57627;SDS011;43451;49.060;10.616;2022-11-04T15:14:19;2.40;;;1.23;;
57627;SDS011;43451;49.060;10.616;2022-11-04T15:16:47;3.78;;;1.50;;
57627;SDS011;43451;49.060;10.616;2022-11-04T15:19:23;5.07;;;1.70;;
57627;SDS011;43451;49.060;10.616;2022-11-04T15:21:56;3.33;;;1.60;;
57627;SDS011;43451;49.060;10.616;2022-11-04T15:24:23;8.13;;;1.85;;
57627;SDS011;43451;49.060;10.616;2022-11-04T15:26:50;6.13;;;1.90;;
57627;SDS011;43451;49.060;10.616;2022-11-04T15:29:17;5.95;;;2.00;;
57627;SDS011;43451;49.060;10.616;2022-11-04T15:31:50;4.30;;;1.80;;
57627;SDS011;43451;49.060;10.616;2022-11-04T15:34:27;4.50;;;1.40;;
57627;SDS011;43451;49.060;10.616;2022-11-04T15:36:55;2.78;;;1.45;;
57627;SDS011;43451;49.060;10.616;2022-11-04T15:39:31;3.47;;;1.48;;
57627;SDS011;43451;49.060;10.616;2022-11-04T15:42:01;2.95;;;1.45;;
57627;SDS011;43451;49.060;10.616;2022-11-04T15:44:50;2.33;;;1.47;;
57627;SDS011;43451;49.060;10.616;2022-11-04T15:47:24;2.45;;;1.35;;
57627;SDS011;43451;49.060;10.616;2022-11-04T15:49:52;4.22;;;1.95;;
57627;SDS011;43451;49.060;10.616;2022-11-04T15:52:27;4.75;;;1.58;;
57627;SDS011;43451;49.060;10.616;2022-11-04T15:54:55;4.35;;;2.08;;
57627;SDS011;43451;49.060;10.616;2022-11-04T15:57:27;4.05;;;1.63;;
57627;SDS011;43451;49.060;10.616;2022-11-04T16:00:01;3.97;;;1.90;;
57627;SDS011;43451;49.060;10.616;2022-11-04T16:02:54;1.88;;;1.58;;
57627;SDS011;43451;49.060;10.616;2022-11-04T16:05:29;6.05;;;2.10;;
57627;SDS011;43451;49.060;10.616;2022-11-04T16:08:14;4.20;;;2.28;;
57627;SDS011;43451;49.060;10.616;2022-11-04T16:10:44;3.80;;;2.13;;
57627;SDS011;43451;49.060;10.616;2022-11-04T16:15:39;6.65;;;1.80;;
57627;SDS011;43451;49.060;10.616;2022-11-04T16:18:21;6.53;;;1.88;;
57627;SDS011;43451;49.060;10.616;2022-11-04T16:21:00;4.85;;;1.50;;
57627;SDS011;43451;49.060;10.616;2022-11-04T16:23:29;6.00;;;1.30;;
57627;SDS011;43451;49.060;10.616;2022-11-04T16:28:21;4.38;;;1.77;;
57627;SDS011;43451;49.060;10.616;2022-11-04T16:30:57;3.50;;;2.03;;
57627;SDS011;43451;49.060;10.616;2022-11-04T16:33:24;4.43;;;1.63;;
57627;SDS011;43451;49.060;10.616;2022-11-04T16:35:50;4.32;;;1.50;;
57627;SDS011;43451;49.060;10.616;2022-11-04T16:38:15;2.85;;;1.60;;
57627;SDS011;43451;49.060;10.616;2022-11-04T16:40:41;2.42;;;1.50;;
57627;SDS011;43451;49.060;10.616;2022-11-04T16:43:10;2.22;;;1.30;;
57627;SDS011;43451;49.060;10.616;2022-11-04T16:45:36;1.92;;;1.23;;
57627;SDS011;43451;49.060;10.616;2022-11-04T16:48:02;3.80;;;1.20;;
57627;SDS011;43451;49.060;10.616;2022-11-04T16:50:28;4.15;;;1.83;;
57627;SDS011;43451;49.060;10.616;2022-11-04T16:52:56;3.30;;;1.80;;
57627;SDS011;43451;49.060;10.616;2022-11-04T16:55:22;2.47;;;1.50;;
57627;SDS011;43451;49.060;10.616;2022-11-04T16:57:50;4.28;;;1.70;;
57627;SDS011;43451;49.060;10.616;2022-11-04T17:00:23;2.75;;;1.50;;
57627;SDS011;43451;49.060;10.616;2022-11-04T17:02:50;2.17;;;1.50;;
57627;SDS011;43451;49.060;10.616;2022-11-04T17:05:16;2.33;;;1.60;;
57627;SDS011;43451;49.060;10.616;2022-11-04T17:07:43;2.90;;;1.65;;
57627;SDS011;43451;49.060;10.616;2022-11-04T17:10:16;5.20;;;1.55;;
57627;SDS011;43451;49.060;10.616;2022-11-04T17:12:44;3.72;;;1.50;;
57627;SDS011;43451;49.060;10.616;2022-11-04T17:15:10;3.65;;;1.48;;
57627;SDS011;43451;49.060;10.616;2022-11-04T17:17:36;2.08;;;1.40;;
57627;SDS011;43451;49.060;10.616;2022-11-04T17:20:02;3.28;;;1.48;;
57627;SDS011;43451;49.060;10.616;2022-11-04T17:22:29;2.75;;;1.70;;
57627;SDS011;43451;49.060;10.616;2022-11-04T17:27:22;2.50;;;1.60;;
57627;SDS011;43451;49.060;10.616;2022-11-04T17:29:47;3.22;;;1.67;;
57627;SDS011;43451;49.060;10.616;2022-11-04T17:32:13;2.50;;;1.55;;
57627;SDS011;43451;49.060;10.616;2022-11-04T17:34:38;4.30;;;1.70;;
57627;SDS011;43451;49.060;10.616;2022-11-04T17:37:04;2.55;;;1.67;;
57627;SDS011;43451;49.060;10.616;2022-11-04T17:39:30;10.98;;;2.20;;
57627;SDS011;43451;49.060;10.616;2022-11-04T17:41:56;2.83;;;1.83;;
57627;SDS011;43451;49.060;10.616;2022-11-04T17:44:44;4.63;;;2.30;;
57627;SDS011;43451;49.060;10.616;2022-11-04T17:47:10;7.65;;;2.10;;